Shalimar II — GUNQ — position and weather

sailwx.info

Track history (hours):
 
Tides and Currents Weather Stations Pressure Air Temp Water Temp Dewpoint Dewpoint Depression Visibility Wind Speed Wind Dir Waves Ship Positions

Shalimar II

Last reported at 2014-Sep-02 01:19 UTC. Time now 2014-Sep-02 02:13 UTC.
Position N 37°56' E 023°41'.

Type: Sailing vessel. MMSI: 235155000.

Date/timePositionNaut miles runAvg speedWind from/ knotsBaromVisibWave heightAir tempDewpointWater temp
2014-Sep-02 01:19N 37°56' E 023°41'0 0.0
2014-Sep-02 00:25N 37°56' E 023°41'0 0.0
2014-Sep-01 23:31N 37°56' E 023°41'0 0.0
2014-Sep-01 21:31N 37°56' E 023°41'0 0.0
2014-Sep-01 20:31N 37°56' E 023°41'0 0.0
2014-Sep-01 19:31N 37°56' E 023°41'0 0.0
2014-Sep-01 18:19N 37°56' E 023°41'0 0.0
2014-Sep-01 13:19N 37°56' E 023°41'0 0.0
2014-Sep-01 12:31N 37°56' E 023°41'0 0.0
2014-Sep-01 11:13N 37°56' E 023°41'0 0.0
2014-Sep-01 10:22N 37°56' E 023°41'0 0.0
2014-Sep-01 09:28N 37°56' E 023°41'0 0.0
2014-Sep-01 08:28N 37°56' E 023°41'0 0.0
2014-Sep-01 07:31N 37°56' E 023°41'0 0.0
2014-Sep-01 06:28N 37°56' E 023°41'0 0.0
2014-Sep-01 05:19N 37°56' E 023°41'0 0.0
2014-Sep-01 03:10N 37°56' E 023°41'0 0.0
2014-Sep-01 02:31N 37°56' E 023°41'0 0.0
2014-Sep-01 01:31N 37°56' E 023°41'0 0.0
2014-Sep-01 00:31N 37°56' E 023°41'0 0.0
2014-Aug-31 23:25N 37°56' E 023°41'0 0.0
2014-Aug-31 22:25N 37°56' E 023°41'0 0.0
2014-Aug-31 21:25N 37°56' E 023°41'0 0.0
2014-Aug-31 20:31N 37°56' E 023°41'0 0.0
2014-Aug-31 19:07N 37°56' E 023°41'0 0.0
2014-Aug-31 18:13N 37°56' E 023°41'0 0.0
2014-Aug-31 17:07N 37°56' E 023°41'0 0.0
2014-Aug-31 16:25N 37°56' E 023°41'0 0.0
2014-Aug-31 13:13N 37°56' E 023°41'3 1.7
2014-Aug-31 11:33N 37°54' E 023°38'8 0.4
2014-Aug-30 17:33N 37°50' E 023°30'10 2.1
2014-Aug-30 12:33N 37°56' E 023°41'0 0.0
2014-Aug-30 11:27N 37°56' E 023°41'0 0.0
2014-Aug-30 09:27N 37°56' E 023°41'0 0.0
2014-Aug-30 08:21N 37°56' E 023°41'0 0.0
2014-Aug-30 07:21N 37°56' E 023°41'0 0.0
2014-Aug-30 03:15N 37°56' E 023°41'0 0.0
2014-Aug-30 02:33N 37°56' E 023°41'0 0.0
2014-Aug-30 01:27N 37°56' E 023°41'0 0.0
2014-Aug-30 00:27N 37°56' E 023°41'0 0.0
2014-Aug-29 20:27N 37°56' E 023°41'0 0.0
2014-Aug-29 19:33N 37°56' E 023°41'0 0.0
2014-Aug-29 16:21N 37°56' E 023°41'0 0.0
2014-Aug-29 15:21N 37°56' E 023°41'0 0.0
2014-Aug-29 14:33N 37°56' E 023°41'0 0.0
2014-Aug-29 06:27N 37°56' E 023°41'0 0.0
2014-Aug-29 01:15N 37°56' E 023°41'0 0.0
2014-Aug-28 22:33N 37°56' E 023°41'0 0.0
2014-Aug-28 21:30N 37°56' E 023°41'0 0.0
2014-Aug-28 19:33N 37°56' E 023°41'0 0.0
2014-Aug-28 18:33N 37°56' E 023°41'0 0.0
2014-Aug-28 13:30N 37°56' E 023°41'0 0.0
2014-Aug-28 12:18N 37°56' E 023°41'0 0.0
2014-Aug-28 11:27N 37°56' E 023°41'0 0.0
2014-Aug-28 10:33N 37°56' E 023°41'0 0.0
2014-Aug-28 08:27N 37°56' E 023°41'0 0.0
2014-Aug-28 06:21N 37°56' E 023°41'0 0.0
2014-Aug-28 03:27N 37°56' E 023°41'0 0.0
2014-Aug-28 02:18N 37°56' E 023°41'0 0.0
2014-Aug-27 23:33N 37°56' E 023°41'0 0.0
2014-Aug-27 21:21N 37°56' E 023°41'0 0.0
2014-Aug-27 17:24N 37°56' E 023°41'0 0.0
2014-Aug-27 14:18N 37°56' E 023°41'0 0.0
2014-Aug-27 12:24N 37°56' E 023°41'0 0.0
2014-Aug-27 06:24N 37°56' E 023°41'0 0.0
2014-Aug-26 20:13N 37°56' E 023°41'0 0.0
2014-Aug-26 17:19N 37°56' E 023°41'0 0.0
2014-Aug-26 11:19N 37°56' E 023°41'0 0.0
2014-Aug-26 02:13N 37°56' E 023°41'0 0.0
2014-Aug-25 22:07N 37°56' E 023°41'0 0.0
2014-Aug-25 21:19N 37°56' E 023°41'0 0.0
2014-Aug-25 20:31N 37°56' E 023°41'0 0.0
2014-Aug-25 12:13N 37°56' E 023°41'0 0.0
2014-Aug-25 11:25N 37°56' E 023°41'0 0.0
2014-Aug-25 10:31N 37°56' E 023°41'0 0.0
2014-Aug-25 09:25N 37°56' E 023°41'0 0.0
2014-Aug-25 08:19N 37°56' E 023°41'0 0.0
2014-Aug-25 04:21N 37°56' E 023°41'7 9.2
2014-Aug-25 03:33N 37°49' E 023°44'  
Track history (hours):
 
Tides and Currents Weather Stations Pressure Air Temp Water Temp Dewpoint Dewpoint Depression Visibility Wind Speed Wind Dir Waves Ship Positions

Shalimar II

Last reported at 2014-Sep-02 01:19 UTC. Time now 2014-Sep-02 02:13 UTC.
Position N 37°56' E 023°41'.

Type: Sailing vessel. MMSI: 235155000.

Date/timePositionNaut miles runAvg speedWind from/ knotsBaromVisibWave heightAir tempDewpointWater temp
2014-Sep-02 01:19N 37°56' E 023°41'0 0.0
2014-Sep-02 00:25N 37°56' E 023°41'0 0.0
2014-Sep-01 23:31N 37°56' E 023°41'0 0.0
2014-Sep-01 21:31N 37°56' E 023°41'0 0.0
2014-Sep-01 20:31N 37°56' E 023°41'0 0.0
2014-Sep-01 19:31N 37°56' E 023°41'0 0.0
2014-Sep-01 18:19N 37°56' E 023°41'0 0.0
2014-Sep-01 13:19N 37°56' E 023°41'0 0.0
2014-Sep-01 12:31N 37°56' E 023°41'0 0.0
2014-Sep-01 11:13N 37°56' E 023°41'0 0.0
2014-Sep-01 10:22N 37°56' E 023°41'0 0.0
2014-Sep-01 09:28N 37°56' E 023°41'0 0.0
2014-Sep-01 08:28N 37°56' E 023°41'0 0.0
2014-Sep-01 07:31N 37°56' E 023°41'0 0.0
2014-Sep-01 06:28N 37°56' E 023°41'0 0.0
2014-Sep-01 05:19N 37°56' E 023°41'0 0.0
2014-Sep-01 03:10N 37°56' E 023°41'0 0.0
2014-Sep-01 02:31N 37°56' E 023°41'0 0.0
2014-Sep-01 01:31N 37°56' E 023°41'0 0.0
2014-Sep-01 00:31N 37°56' E 023°41'0 0.0
2014-Aug-31 23:25N 37°56' E 023°41'0 0.0
2014-Aug-31 22:25N 37°56' E 023°41'0 0.0
2014-Aug-31 21:25N 37°56' E 023°41'0 0.0
2014-Aug-31 20:31N 37°56' E 023°41'0 0.0
2014-Aug-31 19:07N 37°56' E 023°41'0 0.0
2014-Aug-31 18:13N 37°56' E 023°41'0 0.0
2014-Aug-31 17:07N 37°56' E 023°41'0 0.0
2014-Aug-31 16:25N 37°56' E 023°41'0 0.0
2014-Aug-31 13:13N 37°56' E 023°41'3 1.7
2014-Aug-31 11:33N 37°54' E 023°38'8 0.4
2014-Aug-30 17:33N 37°50' E 023°30'10 2.1
2014-Aug-30 12:33N 37°56' E 023°41'0 0.0
2014-Aug-30 11:27N 37°56' E 023°41'0 0.0
2014-Aug-30 09:27N 37°56' E 023°41'0 0.0
2014-Aug-30 08:21N 37°56' E 023°41'0 0.0
2014-Aug-30 07:21N 37°56' E 023°41'0 0.0
2014-Aug-30 03:15N 37°56' E 023°41'0 0.0
2014-Aug-30 02:33N 37°56' E 023°41'0 0.0
2014-Aug-30 01:27N 37°56' E 023°41'0 0.0
2014-Aug-30 00:27N 37°56' E 023°41'0 0.0
2014-Aug-29 20:27N 37°56' E 023°41'0 0.0
2014-Aug-29 19:33N 37°56' E 023°41'0 0.0
2014-Aug-29 16:21N 37°56' E 023°41'0 0.0
2014-Aug-29 15:21N 37°56' E 023°41'0 0.0
2014-Aug-29 14:33N 37°56' E 023°41'0 0.0
2014-Aug-29 06:27N 37°56' E 023°41'0 0.0
2014-Aug-29 01:15N 37°56' E 023°41'0 0.0
2014-Aug-28 22:33N 37°56' E 023°41'0 0.0
2014-Aug-28 21:30N 37°56' E 023°41'0 0.0
2014-Aug-28 19:33N 37°56' E 023°41'0 0.0
2014-Aug-28 18:33N 37°56' E 023°41'0 0.0
2014-Aug-28 13:30N 37°56' E 023°41'0 0.0
2014-Aug-28 12:18N 37°56' E 023°41'0 0.0
2014-Aug-28 11:27N 37°56' E 023°41'0 0.0
2014-Aug-28 10:33N 37°56' E 023°41'0 0.0
2014-Aug-28 08:27N 37°56' E 023°41'0 0.0
2014-Aug-28 06:21N 37°56' E 023°41'0 0.0
2014-Aug-28 03:27N 37°56' E 023°41'0 0.0
2014-Aug-28 02:18N 37°56' E 023°41'0 0.0
2014-Aug-27 23:33N 37°56' E 023°41'0 0.0
2014-Aug-27 21:21N 37°56' E 023°41'0 0.0
2014-Aug-27 17:24N 37°56' E 023°41'0 0.0
2014-Aug-27 14:18N 37°56' E 023°41'0 0.0
2014-Aug-27 12:24N 37°56' E 023°41'0 0.0
2014-Aug-27 06:24N 37°56' E 023°41'0 0.0
2014-Aug-26 20:13N 37°56' E 023°41'0 0.0
2014-Aug-26 17:19N 37°56' E 023°41'0 0.0
2014-Aug-26 11:19N 37°56' E 023°41'0 0.0
2014-Aug-26 02:13N 37°56' E 023°41'0 0.0
2014-Aug-25 22:07N 37°56' E 023°41'0 0.0
2014-Aug-25 21:19N 37°56' E 023°41'0 0.0
2014-Aug-25 20:31N 37°56' E 023°41'0 0.0
2014-Aug-25 12:13N 37°56' E 023°41'0 0.0
2014-Aug-25 11:25N 37°56' E 023°41'0 0.0
2014-Aug-25 10:31N 37°56' E 023°41'0 0.0
2014-Aug-25 09:25N 37°56' E 023°41'0 0.0
2014-Aug-25 08:19N 37°56' E 023°41'0 0.0
2014-Aug-25 04:21N 37°56' E 023°41'7 9.2
2014-Aug-25 03:33N 37°49' E 023°44'  

Dump ship's entire track history